Bates, Arkansas
Current Conditions -  °F | °C
As of 7:35 PM on Wednesday 26 Nov 2014 (Local Time) from KRKR Reporting Station
Clear Clear  
Wind Chill: 44°   Ceiling: Unl
Heat Index: 48°   Visibility: 10mi
Dew Point: 25°   Wind: 9mph
Humidity: 41%   Direction: 300°WNW
Pressure: 30.26"   Gusts: NA
Location:  34.91°N, 94.39°W
Report Text: KRKR 270135Z AUTO 30008KT 10SM CLR 09/M04 A3026 RMK AO2 T00911037
Loading
Personal Weather Stations






























Interactive Weather Map New forecast layout! Learn more

10-Day Weather Forecast

Advertisements
Track Severe Weather on mobile